Cleveland, OH (44117)

4:28 AM EST on February 06, 2016 (GMT -0500)
Bob's Euclid weather station | | Change Station
CLOSE
Current Station
Personal Weather Station
Location: Euclid, OH
Elevation: 833 ft
Nearby Weather Stations

Elev 833 ft 41.57 °N, 81.52 °W | Updated 0 second ago

Overcast
Overcast
31.3 °F
Feels Like 31 °F
N
1.5
Wind Variable Wind from WSW
Gusts 7.5 mph

Today
High -- | Low -- °F
--% Chance of Precip.
Yesterday
High -- | Low -- °F
Precip. -- in
Pressure 30.30 in
Visibility 10.0 miles
Clouds Overcast 5500 ft
Windchill 31 °F
Dew Point 25 °F
Humidity 77%
Rainfall 0.00 in
Snow Depth Not available.
7:33 AM 5:47 PM
Waning Crescent, 6% visible
METAR KBKL 060853Z 23012KT 10SM OVC055 01/M04 A3028 RMK AO2 SLP258 T00061044 50004
Pressure 30.30 in
Visibility 10.0 miles
Clouds Overcast 5500 ft
Windchill 31 °F
Dew Point 25 °F
Humidity 77%
Rainfall 0.00 in
Snow Depth Not available.
7:33 AM 5:47 PM
Waning Crescent, 6% visible
METAR KBKL 060853Z 23012KT 10SM OVC055 01/M04 A3028 RMK AO2 SLP258 T00061044 50004

10-Day Weather Forecast

Almanac

Astronomy

Feb. 06, 2016 Rise Set
Actual Time
Civil Twilight
Nautical Twilight
Astronomical Twilight
Moon
Length of Visible Light
Length of Day
Tomorrow will be .
, % of the Moon is Illuminated

Today's Extremes

State Highs State Lows

Community

WunderPhotos

Upload Photos

1,890,933 photos uploaded!

WunderBlog® & News

Nearby

Air Quality

  Air Quality AQ Index Pollutant
Not available.

Snow Depth

Station Depth Elevation

Earthquake Activity

City Distance Mag. Time & Date
Minimum magnitude displayed is 2.5.

Coastal Water Temperatures

Place Temperature

Stations

Nearby Weather Stations

Station Location Temp. Windchill Dew Point Humidity Wind Precip. Elev Updated Type
                   

Watches & Warnings

There are currently no watches in effect.